Time;durP1;ratioP1;P1;durP2;ratioP2;P2;SDS_P1;SDS_P2;PMS_P1;PMS_P2;Temp;Humidity;BMP_temperature;BMP_pressure;BME280_temperature;BME280_humidity;BME280_pressure;Samples;Min_cycle;Max_cycle;Signal;HPM_P1;HPM_P2
2023/05/08 00:01:46;;;;;;;3.80;2.17;;;;;;;-140.66;100.00;55571.53;5116819;28;20016;-70
2023/05/08 00:04:32;;;;;;;4.03;2.53;;;;;;;-140.66;100.00;55571.53;5116900;28;20035;-70
2023/05/08 00:07:18;;;;;;;3.28;2.63;;;;;;;-140.66;100.00;55571.53;5116817;28;20029;-71
2023/05/08 00:10:07;;;;;;;3.92;2.47;;;;;;;-140.66;100.00;55571.53;5116057;28;20051;-71
2023/05/08 00:12:54;;;;;;;4.28;2.45;;;;;;;-140.66;100.00;55571.53;5115976;28;20039;-71
2023/05/08 00:15:39;;;;;;;4.93;2.85;;;;;;;-140.66;100.00;55571.53;5116293;28;20031;-71
2023/05/08 00:18:25;;;;;;;3.60;2.33;;;;;;;-140.66;100.00;55571.53;5117324;28;20039;-70
2023/05/08 00:21:11;;;;;;;5.38;2.50;;;;;;;-140.66;100.00;55571.53;5116112;28;20470;-70
2023/05/08 00:23:56;;;;;;;8.93;2.58;;;;;;;-140.66;100.00;55571.53;5116103;28;20031;-71
2023/05/08 00:26:43;;;;;;;4.45;2.50;;;;;;;-140.66;100.00;55571.53;5116252;28;20030;-71
2023/05/08 00:29:28;;;;;;;3.25;2.22;;;;;;;-140.66;100.00;55571.53;5116246;28;20039;-71
2023/05/08 00:32:14;;;;;;;3.88;2.58;;;;;;;-140.66;100.00;55571.53;5116356;28;20035;-71
2023/05/08 00:35:00;;;;;;;7.13;2.95;;;;;;;-140.66;100.00;55571.53;5116154;28;20049;-71
2023/05/08 00:37:46;;;;;;;4.18;2.45;;;;;;;-140.66;100.00;55571.53;5116519;28;20034;-70
2023/05/08 00:40:31;;;;;;;4.32;2.47;;;;;;;-140.66;100.00;55571.53;5116403;28;20437;-71
2023/05/08 00:43:18;;;;;;;4.13;2.20;;;;;;;-140.66;100.00;55571.53;5101463;28;20031;-71
2023/05/08 00:46:04;;;;;;;5.47;2.90;;;;;;;-140.66;100.00;55571.53;5116048;28;20443;-71
2023/05/08 00:48:50;;;;;;;3.40;2.28;;;;;;;-140.66;100.00;55571.53;5101855;28;20400;-71
2023/05/08 00:51:36;;;;;;;3.53;2.60;;;;;;;-140.66;100.00;55571.53;5115342;28;20027;-70
2023/05/08 00:54:22;;;;;;;4.18;2.58;;;;;;;-140.66;100.00;55571.53;5116446;28;20027;-71
2023/05/08 00:57:09;;;;;;;6.78;2.53;;;;;;;-140.66;100.00;55571.53;5115553;28;20091;-71
2023/05/08 00:59:55;;;;;;;4.45;2.17;;;;;;;-140.66;100.00;55571.53;5115096;28;20034;-71
2023/05/08 01:02:41;;;;;;;5.13;2.50;;;;;;;-140.66;100.00;55571.53;5115321;28;20038;-71
2023/05/08 01:05:27;;;;;;;2.47;2.15;;;;;;;-140.66;100.00;55571.53;5115755;28;20028;-71
2023/05/08 01:08:13;;;;;;;4.63;2.50;;;;;;;-140.66;100.00;55571.53;5115340;28;20367;-71
2023/05/08 01:11:12;;;;;;;3.40;2.50;;;;;;;-140.66;100.00;55571.53;5114783;28;20055;-72
2023/05/08 01:14:15;;;;;;;3.28;2.40;;;;;;;-140.66;100.00;55571.53;5114919;28;20024;-72
2023/05/08 01:17:22;;;;;;;3.42;2.60;;;;;;;-140.66;100.00;55571.53;5115109;28;20099;-71
2023/05/08 01:20:14;;;;;;;3.40;2.53;;;;;;;-140.66;100.00;55571.53;5116152;28;20034;-70
2023/05/08 01:23:07;;;;;;;3.13;2.30;;;;;;;-140.66;100.00;55571.53;5114965;28;20115;-71
2023/05/08 01:26:11;;;;;;;3.78;2.42;;;;;;;-140.66;100.00;55571.53;5114854;28;20035;-71
2023/05/08 01:29:32;;;;;;;3.45;2.70;;;;;;;-140.66;100.00;55571.53;5114506;28;20038;-71
2023/05/08 01:32:21;;;;;;;6.47;3.17;;;;;;;-140.66;100.00;55571.53;5116304;28;20443;-71
2023/05/08 01:35:06;;;;;;;5.38;3.15;;;;;;;-140.66;100.00;55571.53;5114372;28;20032;-71
2023/05/08 01:38:13;;;;;;;6.95;2.88;;;;;;;-140.66;100.00;55571.53;5100944;28;20437;-71
2023/05/08 01:41:13;;;;;;;3.88;2.60;;;;;;;-140.66;100.00;55571.53;5114380;28;20015;-71
2023/05/08 01:44:09;;;;;;;5.57;2.70;;;;;;;-140.66;100.00;55571.53;5116755;28;20456;-71
2023/05/08 01:46:55;;;;;;;4.70;2.83;;;;;;;-140.66;100.00;55571.53;5114442;28;20027;-71
2023/05/08 01:49:53;;;;;;;4.25;2.35;;;;;;;-140.66;100.00;55571.53;5114466;28;20015;-70
2023/05/08 01:52:50;;;;;;;3.85;2.72;;;;;;;-140.66;100.00;55571.53;5100883;28;20436;-70
2023/05/08 01:55:39;;;;;;;5.18;2.75;;;;;;;-140.66;100.00;55571.53;5114513;28;20031;-71
2023/05/08 01:58:26;;;;;;;4.15;2.58;;;;;;;-140.66;100.00;55571.53;5115918;28;20028;-70
2023/05/08 02:01:13;;;;;;;5.65;2.90;;;;;;;-140.66;100.00;55571.53;5115857;28;20031;-70
2023/05/08 02:04:00;;;;;;;3.97;2.70;;;;;;;-140.66;100.00;55571.53;5114354;28;20038;-71
2023/05/08 02:06:46;;;;;;;5.13;3.10;;;;;;;-140.66;100.00;55571.53;5116092;28;20084;-70
2023/05/08 02:09:32;;;;;;;5.20;2.90;;;;;;;-140.66;100.00;55571.53;5114125;28;20075;-71
2023/05/08 02:12:21;;;;;;;9.82;3.75;;;;;;;-140.66;100.00;55571.53;5100083;28;20344;-71
2023/05/08 02:15:08;;;;;;;5.03;3.10;;;;;;;-140.66;100.00;55571.53;5101070;28;20408;-70
2023/05/08 02:17:55;;;;;;;5.75;2.83;;;;;;;-140.66;100.00;55571.53;5114067;28;20030;-70
2023/05/08 02:20:41;;;;;;;4.05;3.10;;;;;;;-140.66;100.00;55571.53;5114078;28;20027;-71
2023/05/08 02:23:27;;;;;;;9.90;3.60;;;;;;;-140.66;100.00;55571.53;5117882;28;20059;-70
2023/05/08 02:26:15;;;;;;;5.75;3.38;;;;;;;-140.66;100.00;55571.53;5118348;28;20336;-71
2023/05/08 02:29:02;;;;;;;4.55;3.47;;;;;;;-140.66;100.00;55571.53;5118436;28;20092;-70
2023/05/08 02:31:49;;;;;;;5.07;3.40;;;;;;;-140.66;100.00;55571.53;5104617;28;20468;-70
2023/05/08 02:34:35;;;;;;;4.13;2.97;;;;;;;-140.66;100.00;55571.53;5118176;28;20106;-71
2023/05/08 02:37:22;;;;;;;5.88;3.72;;;;;;;-140.66;100.00;55571.53;5118393;28;20350;-71
2023/05/08 02:40:10;;;;;;;4.25;3.40;;;;;;;-140.66;100.00;55571.53;5118180;28;20080;-71
2023/05/08 02:42:56;;;;;;;4.88;3.42;;;;;;;-140.66;100.00;55571.53;5118188;28;20024;-71
2023/05/08 02:45:51;;;;;;;3.67;2.67;;;;;;;-140.66;100.00;55571.53;5118335;28;20023;-71
2023/05/08 02:48:48;;;;;;;3.67;2.63;;;;;;;-140.66;100.00;55571.53;5104593;28;20028;-71
2023/05/08 02:51:56;;;;;;;4.90;2.47;;;;;;;-140.66;100.00;55571.53;5117594;28;20096;-70
2023/05/08 02:54:50;;;;;;;4.68;2.65;;;;;;;-140.66;100.00;55571.53;5118119;28;20047;-71
2023/05/08 02:58:09;;;;;;;7.32;2.55;;;;;;;-140.66;100.00;55571.53;5126297;28;20016;-69
2023/05/08 03:01:13;;;;;;;3.38;2.45;;;;;;;-140.66;100.00;55571.53;5105421;28;20031;-71
2023/05/08 03:04:09;;;;;;;3.53;2.50;;;;;;;-140.66;100.00;55571.53;5118156;28;20351;-72
2023/05/08 03:06:57;;;;;;;3.97;2.60;;;;;;;-140.66;100.00;55571.53;5103901;28;20493;-71
2023/05/08 03:09:47;;;;;;;5.55;2.60;;;;;;;-140.66;100.00;55571.53;5103500;28;20059;-71
2023/05/08 03:12:36;;;;;;;11.07;3.17;;;;;;;-140.66;100.00;55571.53;5117802;28;20035;-70
2023/05/08 03:15:32;;;;;;;6.63;2.72;;;;;;;-140.66;100.00;55571.53;5120304;28;20098;-70
2023/05/08 03:18:20;;;;;;;4.55;2.78;;;;;;;-140.66;100.00;55571.53;5121240;28;20032;-71
2023/05/08 03:21:09;;;;;;;6.20;2.50;;;;;;;-140.66;100.00;55571.53;5119750;28;20107;-71
2023/05/08 03:23:58;;;;;;;3.30;2.40;;;;;;;-140.66;100.00;55571.53;5118275;28;20325;-71
2023/05/08 03:26:44;;;;;;;8.77;2.85;;;;;;;-140.66;100.00;55571.53;5118310;28;20073;-71
2023/05/08 03:29:32;;;;;;;7.05;2.78;;;;;;;-140.66;100.00;55571.53;5102748;28;20363;-71
2023/05/08 03:32:20;;;;;;;4.18;2.70;;;;;;;-140.66;100.00;55571.53;5104696;28;20043;-71
2023/05/08 03:35:08;;;;;;;3.85;2.80;;;;;;;-140.66;100.00;55571.53;5117181;28;20114;-71
2023/05/08 03:37:53;;;;;;;5.13;3.15;;;;;;;-140.66;100.00;55571.53;5120334;28;20035;-70
2023/05/08 03:40:41;;;;;;;6.18;3.13;;;;;;;-140.66;100.00;55571.53;5117311;28;20027;-70
2023/05/08 03:43:28;;;;;;;7.85;3.53;;;;;;;-140.66;100.00;55571.53;5116906;28;20039;-70
2023/05/08 03:46:16;;;;;;;4.93;3.03;;;;;;;-140.66;100.00;55571.53;5117176;28;20415;-70
2023/05/08 03:49:03;;;;;;;9.60;3.00;;;;;;;-140.66;100.00;55571.53;5116883;28;20027;-70
2023/05/08 03:51:50;;;;;;;7.82;3.15;;;;;;;-140.66;100.00;55571.53;5116528;28;20028;-70
2023/05/08 03:54:35;;;;;;;6.40;3.35;;;;;;;-140.66;100.00;55571.53;5117325;28;20023;-70
2023/05/08 03:57:30;;;;;;;7.53;3.40;;;;;;;-140.66;100.00;55571.53;5116545;28;20031;-71
2023/05/08 04:00:40;;;;;;;4.70;3.13;;;;;;;-140.66;100.00;55571.53;5116804;28;20023;-71
2023/05/08 04:03:54;;;;;;;8.27;3.25;;;;;;;-140.66;100.00;55571.53;5117491;28;20066;-71
2023/05/08 04:06:49;;;;;;;5.88;2.90;;;;;;;-140.66;100.00;55571.53;5094314;28;20413;-70
2023/05/08 04:09:48;;;;;;;5.28;2.92;;;;;;;-140.66;100.00;55571.53;5116067;28;20048;-71
2023/05/08 04:12:50;;;;;;;6.57;3.28;;;;;;;-140.66;100.00;55571.53;5102467;28;20027;-71
2023/05/08 04:16:04;;;;;;;8.60;3.22;;;;;;;-140.66;100.00;55571.53;5116573;28;20034;-71
2023/05/08 04:18:58;;;;;;;4.65;3.17;;;;;;;-140.66;100.00;55571.53;5116399;28;20027;-71
2023/05/08 04:21:45;;;;;;;9.48;4.03;;;;;;;-140.66;100.00;55571.53;5117038;28;20128;-71
2023/05/08 04:24:33;;;;;;;7.90;4.13;;;;;;;-140.66;100.00;55571.53;5116005;28;20101;-70
2023/05/08 04:27:19;;;;;;;7.20;4.03;;;;;;;-140.66;100.00;55571.53;5116264;28;20549;-70
2023/05/08 04:30:07;;;;;;;10.35;4.40;;;;;;;-140.66;100.00;55571.53;5116411;28;20032;-71
2023/05/08 06:28:39;;;;;;;4.85;2.80;;;;;;;-140.66;100.00;55571.53;4135920;28;20058;-71
2023/05/08 06:31:25;;;;;;;6.72;3.38;;;;;;;-140.66;100.00;55571.53;5080915;28;20032;-71
2023/05/08 06:34:11;;;;;;;10.27;3.15;;;;;;;-140.66;100.00;55571.53;5080985;28;20024;-72
2023/05/08 06:36:57;;;;;;;8.57;3.42;;;;;;;-140.66;100.00;55571.53;5095133;28;20028;-72
2023/05/08 06:39:43;;;;;;;6.15;3.22;;;;;;;-140.66;100.00;55571.53;5093966;28;20063;-71
2023/05/08 06:42:28;;;;;;;6.43;3.20;;;;;;;-140.66;100.00;55571.53;5094990;28;20478;-71
2023/05/08 06:45:14;;;;;;;6.07;3.40;;;;;;;-140.66;100.00;55571.53;5094983;28;20134;-71
2023/05/08 06:48:00;;;;;;;5.10;2.70;;;;;;;-140.66;100.00;55571.53;5094673;28;20024;-71
2023/05/08 06:50:46;;;;;;;3.58;2.80;;;;;;;-140.66;100.00;55571.53;5094341;28;20035;-71
2023/05/08 06:53:32;;;;;;;4.57;2.75;;;;;;;-140.66;100.00;55571.53;5079901;28;20217;-71
2023/05/08 06:56:18;;;;;;;9.95;2.63;;;;;;;-140.66;100.00;55571.53;5079045;28;20028;-71
2023/05/08 06:59:04;;;;;;;7.80;2.58;;;;;;;-140.66;100.00;55571.53;5094027;28;20035;-72
2023/05/08 07:01:50;;;;;;;9.35;3.22;;;;;;;-140.66;100.00;55571.53;5093356;28;20445;-72
2023/05/08 07:04:36;;;;;;;3.92;2.60;;;;;;;-140.66;100.00;55571.53;5088151;28;20107;-72
2023/05/08 07:07:21;;;;;;;4.70;2.72;;;;;;;-140.66;100.00;55571.53;5095753;28;20031;-71
2023/05/08 07:10:07;;;;;;;5.47;2.55;;;;;;;-140.66;100.00;55571.53;5099141;28;20031;-72
2023/05/08 07:12:53;;;;;;;8.13;3.00;;;;;;;-140.66;100.00;55571.53;5097792;28;20082;-71
2023/05/08 07:15:39;;;;;;;4.35;2.75;;;;;;;-140.66;100.00;55571.53;5099458;27;20071;-71
2023/05/08 07:18:24;;;;;;;6.22;2.95;;;;;;;-140.66;100.00;55571.53;5082981;28;20020;-71
2023/05/08 07:21:10;;;;;;;6.47;3.00;;;;;;;-140.66;100.00;55571.53;5097910;28;20031;-72
2023/05/08 07:23:56;;;;;;;8.68;3.30;;;;;;;-140.66;100.00;55571.53;5099370;27;20034;-71
2023/05/08 07:26:42;;;;;;;10.57;2.90;;;;;;;-140.66;100.00;55571.53;5098251;28;20059;-71
2023/05/08 07:29:28;;;;;;;5.22;2.70;;;;;;;-140.66;100.00;55571.53;5097195;28;20492;-72
2023/05/08 07:32:14;;;;;;;6.50;3.05;;;;;;;-140.66;100.00;55571.53;5099492;27;20085;-70
2023/05/08 07:35:01;;;;;;;7.70;3.10;;;;;;;-140.66;100.00;55571.53;5098082;28;20093;-71
2023/05/08 07:37:47;;;;;;;4.45;2.85;;;;;;;-140.66;100.00;55571.53;5098735;27;20040;-71
2023/05/08 07:40:33;;;;;;;7.13;3.00;;;;;;;-140.66;100.00;55571.53;5097184;28;20046;-71
2023/05/08 07:43:19;;;;;;;7.07;2.70;;;;;;;-140.66;100.00;55571.53;5098157;28;20097;-71
2023/05/08 07:46:04;;;;;;;10.13;2.70;;;;;;;-140.66;100.00;55571.53;5097911;28;20012;-71
2023/05/08 07:48:50;;;;;;;4.82;2.88;;;;;;;-140.66;100.00;55571.53;5081810;28;20398;-71
2023/05/08 07:51:36;;;;;;;4.90;2.83;;;;;;;-140.66;100.00;55571.53;5081860;28;20028;-71
2023/05/08 07:54:22;;;;;;;3.42;2.42;;;;;;;-140.66;100.00;55571.53;5098760;28;20035;-71
2023/05/08 07:57:08;;;;;;;8.50;2.97;;;;;;;-140.66;100.00;55571.53;5097713;28;20028;-71
2023/05/08 07:59:53;;;;;;;6.85;2.78;;;;;;;-140.66;100.00;55571.53;5098220;27;20455;-70
2023/05/08 08:02:40;;;;;;;6.45;3.03;;;;;;;-140.66;100.00;55571.53;5082335;28;20035;-71
2023/05/08 08:05:26;;;;;;;6.32;2.90;;;;;;;-140.66;100.00;55571.53;5097715;28;20019;-70
2023/05/08 08:08:12;;;;;;;5.90;2.78;;;;;;;-140.66;100.00;55571.53;5098164;27;20028;-70
2023/05/08 08:10:57;;;;;;;6.10;2.80;;;;;;;-140.66;100.00;55571.53;5096280;28;20074;-72
2023/05/08 08:13:43;;;;;;;5.68;2.95;;;;;;;-140.66;100.00;55571.53;5096323;28;20036;-71
2023/05/08 08:16:29;;;;;;;7.90;2.85;;;;;;;-140.66;100.00;55571.53;5097307;28;20028;-71
2023/05/08 08:19:15;;;;;;;4.93;2.40;;;;;;;-140.66;100.00;55571.53;5097905;28;20032;-71
2023/05/08 08:22:00;;;;;;;4.40;2.80;;;;;;;-140.66;100.00;55571.53;5097141;28;20038;-71
2023/05/08 08:24:46;;;;;;;7.78;2.70;;;;;;;-140.66;100.00;55571.53;5096004;28;20031;-71
2023/05/08 08:27:32;;;;;;;7.38;2.90;;;;;;;-140.66;100.00;55571.53;5097128;28;20020;-71
2023/05/08 08:30:18;;;;;;;20.10;3.95;;;;;;;-140.66;100.00;55571.53;5097679;27;20031;-71
2023/05/08 08:33:05;;;;;;;11.95;3.13;;;;;;;-140.66;100.00;55571.53;5096738;28;20525;-71
2023/05/08 08:35:50;;;;;;;9.80;3.10;;;;;;;-140.66;100.00;55571.53;5096988;28;20032;-71
2023/05/08 08:38:36;;;;;;;6.20;2.85;;;;;;;-140.66;100.00;55571.53;5096072;28;20039;-71
2023/05/08 08:41:22;;;;;;;6.05;3.03;;;;;;;-140.66;100.00;55571.53;5095288;28;20030;-71
2023/05/08 08:44:08;;;;;;;9.70;3.65;;;;;;;-140.66;100.00;55571.53;5096356;28;20028;-71
2023/05/08 08:46:56;;;;;;;8.88;3.47;;;;;;;-140.66;100.00;55571.53;5095980;28;20106;-70
2023/05/08 08:49:47;;;;;;;6.25;3.22;;;;;;;-140.66;100.00;55571.53;5096282;28;20067;-71
2023/05/08 08:52:53;;;;;;;6.35;2.75;;;;;;;-140.66;100.00;55571.53;5080997;28;20170;-71
2023/05/08 08:55:41;;;;;;;5.18;2.90;;;;;;;-140.66;100.00;55571.53;5081109;28;20028;-70
2023/05/08 08:58:42;;;;;;;6.22;3.33;;;;;;;-140.66;100.00;55571.53;5081955;28;20024;-70
2023/05/08 09:01:29;;;;;;;6.15;3.22;;;;;;;-140.66;100.00;55571.53;5080487;28;20055;-71
2023/05/08 09:04:15;;;;;;;9.40;3.20;;;;;;;-140.66;100.00;55571.53;5080094;28;20428;-71
2023/05/08 09:07:04;;;;;;;11.13;3.25;;;;;;;-140.66;100.00;55571.53;5081112;28;20055;-71
2023/05/08 09:09:51;;;;;;;7.78;3.50;;;;;;;-140.66;100.00;55571.53;5096285;28;20039;-71
2023/05/08 09:12:39;;;;;;;6.07;3.22;;;;;;;-140.66;100.00;55571.53;5096819;28;20028;-71
2023/05/08 09:15:25;;;;;;;8.57;3.13;;;;;;;-140.66;100.00;55571.53;5094975;28;20032;-71
2023/05/08 09:18:12;;;;;;;8.23;2.78;;;;;;;-140.66;100.00;55571.53;5095570;28;20063;-71
2023/05/08 09:21:00;;;;;;;8.63;2.67;;;;;;;-140.66;100.00;55571.53;5095495;28;20071;-70
2023/05/08 09:23:55;;;;;;;9.70;3.08;;;;;;;-140.66;100.00;55571.53;5096099;28;20032;-70
2023/05/08 09:26:41;;;;;;;9.25;3.30;;;;;;;-140.66;100.00;55571.53;5096612;28;20024;-72
2023/05/08 09:29:26;;;;;;;6.03;3.10;;;;;;;-140.66;100.00;55571.53;5106225;28;20036;-70
2023/05/08 09:32:17;;;;;;;4.78;3.08;;;;;;;-140.66;100.00;55571.53;5082288;28;20031;-72
2023/05/08 09:35:05;;;;;;;5.07;3.78;;;;;;;-140.66;100.00;55571.53;5095633;28;20059;-71
2023/05/08 09:37:50;;;;;;;6.68;3.58;;;;;;;-140.66;100.00;55571.53;5095330;28;20117;-71
2023/05/08 09:40:36;;;;;;;6.97;4.30;;;;;;;-140.66;100.00;55571.53;5095076;28;20028;-70
2023/05/08 09:43:22;;;;;;;14.30;4.20;;;;;;;-140.66;100.00;55571.53;5094072;28;20475;-70
2023/05/08 09:46:22;;;;;;;5.88;4.13;;;;;;;-140.66;100.00;55571.53;5096098;28;20016;-71
2023/05/08 09:49:16;;;;;;;10.52;4.32;;;;;;;-140.66;100.00;55571.53;5101162;28;20337;-71
2023/05/08 09:52:02;;;;;;;10.40;5.35;;;;;;;-140.66;100.00;55571.53;5088351;28;20435;-71
2023/05/08 09:54:56;;;;;;;5.65;4.03;;;;;;;-140.66;100.00;55571.53;5095240;28;20031;-70
2023/05/08 09:57:56;;;;;;;12.23;4.57;;;;;;;-140.66;100.00;55571.53;5101399;28;20043;-71
2023/05/08 10:00:42;;;;;;;9.63;4.20;;;;;;;-140.66;100.00;55571.53;5093686;28;20086;-71
2023/05/08 10:03:47;;;;;;;21.50;5.05;;;;;;;-140.66;100.00;55571.53;5096022;27;20050;-71
2023/05/08 10:06:35;;;;;;;85.63;8.90;;;;;;;-140.66;100.00;55571.53;5096385;28;20440;-71
2023/05/08 10:09:20;;;;;;;9.13;4.80;;;;;;;-140.66;100.00;55571.53;5095314;28;20408;-72
2023/05/08 10:12:07;;;;;;;7.88;4.82;;;;;;;-140.66;100.00;55571.53;5094122;28;20035;-71
2023/05/08 10:14:53;;;;;;;11.05;5.10;;;;;;;-140.66;100.00;55571.53;5093957;28;20040;-71
2023/05/08 10:17:51;;;;;;;10.55;4.53;;;;;;;-140.66;100.00;55571.53;5094962;28;20024;-70
2023/05/08 10:20:39;;;;;;;11.25;4.93;;;;;;;-140.66;100.00;55571.53;5096256;28;20407;-71
2023/05/08 10:23:25;;;;;;;7.63;4.38;;;;;;;-140.66;100.00;55571.53;5094606;28;20134;-72
2023/05/08 10:26:15;;;;;;;7.70;4.80;;;;;;;-140.66;100.00;55571.53;5094173;28;20441;-70
2023/05/08 10:29:07;;;;;;;15.15;5.40;;;;;;;-140.66;100.00;55571.53;5095736;28;20056;-71
2023/05/08 10:31:57;;;;;;;6.78;4.47;;;;;;;-140.66;100.00;55571.53;5094919;28;20036;-70
2023/05/08 10:34:48;;;;;;;9.38;4.60;;;;;;;-140.66;100.00;55571.53;5079220;28;20036;-70
2023/05/08 10:37:36;;;;;;;10.63;4.75;;;;;;;-140.66;100.00;55571.53;5094634;28;20027;-69
2023/05/08 10:40:22;;;;;;;8.45;4.85;;;;;;;-140.66;100.00;55571.53;5079336;28;20070;-70
2023/05/08 10:43:09;;;;;;;7.68;4.38;;;;;;;-140.66;100.00;55571.53;5094529;28;20094;-70
2023/05/08 10:45:58;;;;;;;7.80;4.65;;;;;;;-140.66;100.00;55571.53;5098470;28;20024;-71
2023/05/08 10:48:59;;;;;;;9.05;4.57;;;;;;;-140.66;100.00;55571.53;5098369;28;20024;-71
2023/05/08 10:52:00;;;;;;;15.43;5.10;;;;;;;-140.66;100.00;55571.53;5083038;28;20443;-71
2023/05/08 10:55:01;;;;;;;13.95;5.05;;;;;;;-140.66;100.00;55571.53;5098928;28;20039;-71
2023/05/08 10:58:13;;;;;;;13.82;4.63;;;;;;;-140.66;100.00;55571.53;5097846;28;20055;-71
2023/05/08 11:00:59;;;;;;;9.43;4.63;;;;;;;-140.66;100.00;55571.53;5083348;28;20038;-70
2023/05/08 11:03:49;;;;;;;8.77;4.32;;;;;;;-140.66;100.00;55571.53;5098159;28;20027;-71
2023/05/08 11:06:42;;;;;;;9.00;4.65;;;;;;;-140.66;100.00;55571.53;5097404;28;20115;-71
2023/05/08 11:09:43;;;;;;;9.18;4.53;;;;;;;-140.66;100.00;55571.53;5083273;28;20028;-71
2023/05/08 11:12:30;;;;;;;8.07;4.72;;;;;;;-140.66;100.00;55571.53;5097444;28;20110;-69
2023/05/08 11:15:17;;;;;;;7.78;4.70;;;;;;;-140.66;100.00;55571.53;5097527;28;20043;-70
2023/05/08 11:18:10;;;;;;;11.82;4.97;;;;;;;-140.66;100.00;55571.53;5097249;28;20036;-70
2023/05/08 11:20:58;;;;;;;9.93;4.57;;;;;;;-140.66;100.00;55571.53;5097543;28;20059;-70
2023/05/08 11:23:55;;;;;;;11.40;4.13;;;;;;;-140.66;100.00;55571.53;5097021;28;20036;-69
2023/05/08 11:26:47;;;;;;;7.97;4.65;;;;;;;-140.66;100.00;55571.53;5098428;28;20055;-70
2023/05/08 11:29:35;;;;;;;10.77;4.47;;;;;;;-140.66;100.00;55571.53;5097500;28;20070;-70
2023/05/08 11:32:24;;;;;;;6.28;4.28;;;;;;;-140.66;100.00;55571.53;5098304;28;20028;-70
2023/05/08 11:35:12;;;;;;;8.00;5.00;;;;;;;-140.66;100.00;55571.53;5096593;28;20119;-69
2023/05/08 11:38:14;;;;;;;7.28;5.10;;;;;;;-140.66;100.00;55571.53;5097007;28;20094;-70
2023/05/08 11:41:20;;;;;;;11.27;6.10;;;;;;;-140.66;100.00;55571.53;5097744;28;20042;-69
2023/05/08 11:44:19;;;;;;;12.40;6.13;;;;;;;-140.66;100.00;55571.53;5097908;28;20036;-69
2023/05/08 11:47:06;;;;;;;7.90;6.05;;;;;;;-140.66;100.00;55571.53;5096931;28;20062;-69
2023/05/08 11:49:54;;;;;;;9.18;6.22;;;;;;;-140.66;100.00;55571.53;5095511;28;20020;-70
2023/05/08 11:52:41;;;;;;;13.32;6.38;;;;;;;-140.66;100.00;55571.53;5081899;28;20099;-70
2023/05/08 11:55:27;;;;;;;9.52;6.35;;;;;;;-140.66;100.00;55571.53;5095866;28;20092;-70
2023/05/08 11:58:16;;;;;;;11.98;7.05;;;;;;;-140.66;100.00;55571.53;5096598;28;20499;-69
2023/05/08 12:01:02;;;;;;;11.85;7.75;;;;;;;-140.66;100.00;55571.53;5097140;28;20038;-70
2023/05/08 12:03:48;;;;;;;10.05;7.70;;;;;;;-140.66;100.00;55571.53;5097155;28;20027;-69
2023/05/08 12:06:37;;;;;;;10.88;7.80;;;;;;;-140.66;100.00;55571.53;5098593;27;20017;-69
2023/05/08 12:09:23;;;;;;;12.05;8.52;;;;;;;-140.66;100.00;55571.53;5097019;28;20097;-69
2023/05/08 12:12:08;;;;;;;13.05;9.43;;;;;;;-140.66;100.00;55571.53;5097466;28;20047;-69
2023/05/08 12:14:54;;;;;;;12.10;9.13;;;;;;;-140.66;100.00;55571.53;5096881;28;20097;-68
2023/05/08 12:17:41;;;;;;;17.98;10.60;;;;;;;-140.66;100.00;55571.53;5082292;28;20375;-71
2023/05/08 12:20:27;;;;;;;12.25;9.40;;;;;;;-140.66;100.00;55571.53;5096288;28;20375;-69
2023/05/08 12:23:13;;;;;;;14.52;9.82;;;;;;;-140.66;100.00;55571.53;5095627;28;20093;-69
2023/05/08 12:26:00;;;;;;;14.15;10.43;;;;;;;-140.66;100.00;55571.53;5097657;28;20031;-69
2023/05/08 12:28:47;;;;;;;15.80;11.63;;;;;;;-140.66;100.00;55571.53;5100721;28;20464;-69
2023/05/08 12:31:36;;;;;;;17.58;12.30;;;;;;;-140.66;100.00;55571.53;5099200;28;20027;-70
2023/05/08 12:34:22;;;;;;;18.30;11.80;;;;;;;-140.66;100.00;55571.53;5097645;28;20020;-69
2023/05/08 12:37:08;;;;;;;15.65;12.27;;;;;;;-140.66;100.00;55571.53;5095860;28;20034;-69
2023/05/08 12:39:54;;;;;;;18.15;13.45;;;;;;;-140.66;100.00;55571.53;5081460;28;20039;-69
2023/05/08 12:43:01;;;;;;;19.65;13.13;;;;;;;-140.66;100.00;55571.53;5097110;28;20173;-70
2023/05/08 12:45:51;;;;;;;19.73;13.45;;;;;;;-140.66;100.00;55571.53;5082101;28;20024;-69
2023/05/08 12:48:37;;;;;;;22.33;14.95;;;;;;;-140.66;100.00;55571.53;5096902;28;20036;-69
2023/05/08 12:51:30;;;;;;;20.92;14.80;;;;;;;-140.66;100.00;55571.53;5101037;28;20024;-69
2023/05/08 12:54:16;;;;;;;20.17;14.90;;;;;;;-140.66;100.00;55571.53;5088126;28;20027;-68
2023/05/08 12:57:16;;;;;;;24.13;15.00;;;;;;;-140.66;100.00;55571.53;5097247;28;20068;-69
2023/05/08 13:00:04;;;;;;;22.48;14.45;;;;;;;-140.66;100.00;55571.53;5096400;28;20032;-70
2023/05/08 13:02:54;;;;;;;21.45;15.23;;;;;;;-140.66;100.00;55571.53;5095601;28;20482;-70
2023/05/08 13:05:44;;;;;;;28.67;16.95;;;;;;;-140.66;100.00;55571.53;5095025;28;20437;-70
2023/05/08 13:08:36;;;;;;;20.85;14.77;;;;;;;-140.66;100.00;55571.53;5095733;28;20421;-69
2023/05/08 13:11:32;;;;;;;24.05;15.55;;;;;;;-140.66;100.00;55571.53;5097218;27;20043;-69
2023/05/08 13:14:17;;;;;;;20.88;14.50;;;;;;;-140.66;100.00;55571.53;5094952;28;20455;-70
2023/05/08 13:17:03;;;;;;;23.42;16.70;;;;;;;-140.66;100.00;55571.53;5094815;28;20436;-69
2023/05/08 13:19:49;;;;;;;20.13;15.68;;;;;;;-140.66;100.00;55571.53;5079903;28;20483;-70
2023/05/08 13:22:34;;;;;;;22.73;16.10;;;;;;;-140.66;100.00;55571.53;5095199;28;20027;-69
2023/05/08 13:25:20;;;;;;;26.70;16.58;;;;;;;-140.66;100.00;55571.53;5095142;28;20028;-69
2023/05/08 13:28:07;;;;;;;28.17;17.10;;;;;;;-140.66;100.00;55571.53;5079944;28;20040;-69
2023/05/08 13:30:53;;;;;;;26.50;17.83;;;;;;;-140.66;100.00;55571.53;5095372;28;20036;-69
2023/05/08 13:33:39;;;;;;;23.02;17.02;;;;;;;-140.66;100.00;55571.53;5094152;28;20028;-70
2023/05/08 13:36:25;;;;;;;25.88;18.27;;;;;;;-140.66;100.00;55571.53;5080555;28;20016;-69
2023/05/08 13:39:11;;;;;;;30.35;17.73;;;;;;;-140.66;100.00;55571.53;5095251;28;20038;-70
2023/05/08 13:41:56;;;;;;;24.95;17.25;;;;;;;-140.66;100.00;55571.53;5095189;28;20444;-70
2023/05/08 13:44:42;;;;;;;24.80;16.85;;;;;;;-140.66;100.00;55571.53;5095617;28;20063;-69
2023/05/08 13:47:28;;;;;;;22.38;16.35;;;;;;;-140.66;100.00;55571.53;5081585;28;20038;-69
2023/05/08 13:50:15;;;;;;;23.00;16.02;;;;;;;-140.66;100.00;55571.53;5094202;28;20020;-70
2023/05/08 13:53:01;;;;;;;22.33;16.17;;;;;;;-140.66;100.00;55571.53;5094489;28;20020;-70
2023/05/08 13:55:47;;;;;;;20.65;15.25;;;;;;;-140.66;100.00;55571.53;5080675;28;20341;-70
2023/05/08 13:58:33;;;;;;;23.83;15.95;;;;;;;-140.66;100.00;55571.53;5094505;28;20020;-69
2023/05/08 14:01:18;;;;;;;22.33;15.25;;;;;;;-140.66;100.00;55571.53;5095389;28;20028;-70
2023/05/08 14:04:04;;;;;;;20.27;14.52;;;;;;;-140.66;100.00;55571.53;5079840;28;20020;-69
2023/05/08 14:06:50;;;;;;;22.80;14.48;;;;;;;-140.66;100.00;55571.53;5094672;28;20126;-69
2023/05/08 14:09:36;;;;;;;22.63;14.38;;;;;;;-140.66;100.00;55571.53;5094137;28;20032;-70
2023/05/08 14:12:22;;;;;;;15.23;12.85;;;;;;;-140.66;100.00;55571.53;5095918;28;20510;-70
2023/05/08 14:15:08;;;;;;;17.80;13.13;;;;;;;-140.66;100.00;55571.53;5094016;28;20081;-70
2023/05/08 14:17:54;;;;;;;16.02;13.05;;;;;;;-140.66;100.00;55571.53;5083453;28;20440;-69
2023/05/08 14:20:40;;;;;;;17.90;12.82;;;;;;;-140.66;100.00;55571.53;5086095;28;20180;-69
2023/05/08 14:23:26;;;;;;;18.65;13.23;;;;;;;-140.66;100.00;55571.53;5101361;28;20017;-70
2023/05/08 14:26:12;;;;;;;17.40;12.90;;;;;;;-140.66;100.00;55571.53;5102837;27;20426;-70
2023/05/08 14:28:58;;;;;;;16.50;13.38;;;;;;;-140.66;100.00;55571.53;5086421;28;20056;-71
2023/05/08 14:31:44;;;;;;;14.77;12.23;;;;;;;-140.66;100.00;55571.53;5100219;28;20039;-70
2023/05/08 14:34:30;;;;;;;17.80;12.73;;;;;;;-140.66;100.00;55571.53;5101337;28;20452;-71
2023/05/08 14:37:16;;;;;;;15.40;12.60;;;;;;;-140.66;100.00;55571.53;5100531;28;20141;-69
2023/05/08 14:40:02;;;;;;;17.05;13.05;;;;;;;-140.66;100.00;55571.53;5101087;28;20357;-69